This is the latest recevied weather packets stored in our database for station/object KI5NXU. If no packets are shown the sender has not sent any weather packets the latest 10 day(s).
| Time | Temp. | Humidity | Pressure | Rain* | Wind** | Luminosity | Snow |
|---|---|---|---|---|---|---|---|
| 1777417083 | 22.78° C | 94% | 1008.2 hPa | 0 mm | - | 275 W/m² | - |
| 1777416777 | 23.33° C | 94% | 1008.5 hPa | 0 mm | - | 299 W/m² | - |
| 1777416473 | 22.78° C | 94% | 1008.1 hPa | 0 mm | - | 302 W/m² | - |
| 1777416170 | 22.78° C | 94% | 1007.6 hPa | 0 mm | - | 325 W/m² | - |
| 1777415864 | 22.22° C | 94% | 1007.7 hPa | 0 mm | - | 361 W/m² | - |
| 1777415559 | 21.67° C | 94% | 1008.5 hPa | 0 mm | - | 334 W/m² | - |
| 1777415256 | 21.67° C | 94% | 1008.4 hPa | 0 mm | - | 324 W/m² | - |
| 1777414951 | 21.67° C | 94% | 1008.1 hPa | 0 mm | - | 121 W/m² | - |
| 1777414650 | 21.67° C | 94% | 1008.2 hPa | 0 mm | - | 186 W/m² | - |
| 1777414345 | 20.56° C | 93% | 1008 hPa | 4.83 mm | - | 470 W/m² | - |
| 1777414040 | 20° C | 93% | 1007.6 hPa | 21.59 mm | - | 147 W/m² | - |
| 1777413736 | 19.44° C | 93% | 1007.4 hPa | 29.97 mm | - | 58 W/m² | - |
| 1777413431 | 20° C | 92% | 1008.7 hPa | 19.81 mm | - | 22 W/m² | - |
| 1777413128 | 21.67° C | 94% | 1008.2 hPa | 10.67 mm | - | 22 W/m² | - |
| 1777412823 | 21.67° C | 94% | 1007.5 hPa | 10.16 mm | - | 21 W/m² | - |
| 1777412523 | 21.67° C | 94% | 1007.6 hPa | 19.81 mm | - | 12 W/m² | - |
| 1777412220 | 22.22° C | 93% | 1007.6 hPa | 18.03 mm | - | 18 W/m² | - |
| 1777411916 | 24.44° C | 90% | 1007.6 hPa | 4.32 mm | - | 1 W/m² | - |
| 1777411615 | 26.11° C | 81% | 1007.3 hPa | 0 mm | - | 0 W/m² | - |
| 1777411310 | 27.22° C | 76% | 1007 hPa | 0 mm | - | 4 W/m² | - |
| 1777411009 | 31.11° C | 72% | 1007.4 hPa | 0 mm | - | 23 W/m² | - |
| 1777410708 | 31.67° C | 67% | 1007 hPa | 0 mm | - | 50 W/m² | - |
| 1777410404 | 31.67° C | 67% | 1006.4 hPa | 0 mm | - | 60 W/m² | - |
| 1777410103 | 32.22° C | 65% | 1005.8 hPa | 0 mm | - | 106 W/m² | - |
| 1777409798 | 33.33° C | 63% | 1006.6 hPa | 0 mm | - | 199 W/m² | - |
* Rain latest hour (hover to see other rain measurements)
** Current wind speed in m/s (hover to see current wind gust speed)